KCIU/CIU METAR and TAF weather

Enter ICAO airport designator
Station Type Date Time Source
KCIU METAR 2019/10/15 18:56 UTC NOAA

KCIU 151856Z AUTO 16007KT 10SM -RA FEW024 SCT034 OVC050 07/04 A2991 RMK AO2 RAB24 SLP134 P0000 T00720044


Station Type Date Time Source
KCIU Decoded METAR 2019/10/15 18:56 UTC NOAA

Sault Ste Marie, Chippewa County International Airport, MI, United States (KCIU) 46-15N 084-28W
Oct 15, 2019 - 02:56 PM EDT / 2019.10.15 1856 UTC
Wind: from the SSE (160 degrees) at 8 MPH (7 KT):0
Visibility: 10 mile(s):0
Sky conditions: overcast
Weather: light rain
Precipitation last hour: A trace
Temperature: 45.0 F (7.2 C)
Dew Point: 39.9 F (4.4 C)
Relative Humidity: 82%
Pressure (altimeter): 29.91 in. Hg (1012 hPa)
ob: KCIU 151856Z AUTO 16007KT 10SM -RA FEW024 SCT034 OVC050 07/04 A2991 RMK AO2 RAB24 SLP134 P0000 T00720044
cycle: 19

Station Type Date Time Source
KCIU TAF UTC NOAA

Error!

Example: see airport list